Time;durP1;ratioP1;P1;durP2;ratioP2;P2;SDS_P1;SDS_P2;PMS_P1;PMS_P2;Temp;Humidity;BMP_temperature;BMP_pressure;BME280_temperature;BME280_humidity;BME280_pressure;Samples;Min_cycle;Max_cycle;Signal;HPM_P1;HPM_P2
2021/01/07 00:00:15;;;;;;;;;;;;;;;6.19;100.00;92820.78;5031050;28;20417;-85
2021/01/07 00:02:42;;;;;;;1.83;1.42;;;;;;;6.12;100.00;92815.66;5030530;28;20026;-87
2021/01/07 00:05:09;;;;;;;4.53;1.85;;;;;;;6.19;100.00;92817.44;5030376;28;20045;-87
2021/01/07 00:07:36;;;;;;;1.88;1.40;;;;;;;6.26;100.00;92813.16;5030402;28;20050;-86
2021/01/07 00:10:03;;;;;;;2.38;1.48;;;;;;;6.26;100.00;92813.94;5030515;28;20053;-85
2021/01/07 00:12:30;;;;;;;3.25;0.93;;;;;;;6.27;100.00;92814.72;5030455;28;20504;-86
2021/01/07 00:14:56;;;;;;;;;;;;;;;6.27;100.00;92809.63;5030932;28;20115;-85
2021/01/07 00:17:22;;;;;;;3.72;0.95;;;;;;;6.01;100.00;92781.28;5043384;28;19921;-84
2021/01/07 00:19:48;;;;;;;;;;;;;;;6.23;100.00;92803.34;5050558;28;20053;-86
2021/01/07 00:22:15;;;;;;;1.52;0.88;;;;;;;6.20;100.00;92801.19;5049977;28;19921;-87
2021/01/07 00:24:42;;;;;;;1.67;0.90;;;;;;;6.23;100.00;92809.22;5050016;28;20064;-85
2021/01/07 00:27:08;;;;;;;2.95;1.75;;;;;;;6.20;100.00;92803.72;5050156;28;20052;-88
2021/01/07 00:29:34;;;;;;;4.15;2.13;;;;;;;6.14;100.00;92800.97;5050459;28;20052;-89
2021/01/07 00:32:01;;;;;;;1.10;0.63;;;;;;;6.23;100.00;92809.22;5052061;28;20048;-86
2021/01/07 00:34:27;;;;;;;;;;;;;;;6.27;100.00;92802.78;5053685;28;20053;-88
2021/01/07 00:36:57;;;;;;;2.63;1.20;;;;;;;6.25;100.00;92799.63;5053547;28;19994;-88
2021/01/07 00:39:24;;;;;;;3.17;1.30;;;;;;;5.96;100.00;92767.53;5053551;28;20049;-87
2021/01/07 00:41:55;;;;;;;11.52;2.30;;;;;;;6.19;100.00;92790.19;5053563;28;20053;-83
2021/01/07 00:44:21;;;;;;;5.75;1.08;;;;;;;6.26;100.00;92798.63;5053434;28;20049;-89
2021/01/07 00:46:48;;;;;;;;;;;;;;;6.25;100.00;92807.25;5035322;28;20053;-87
2021/01/07 00:49:14;;;;;;;6.57;2.42;;;;;;;6.22;100.00;92797.47;5033370;28;19925;-87
2021/01/07 00:51:40;;;;;;;;;;;;;;;6.25;100.00;92798.84;5033879;28;20456;-85
2021/01/07 00:54:06;;;;;;;1.50;0.75;;;;;;;6.25;100.00;92809.03;5033518;28;20269;-88
2021/01/07 00:56:36;;;;;;;;;;;;;;;6.20;100.00;92796.09;5033900;28;20045;-85
2021/01/07 00:59:04;;;;;;;3.58;0.65;;;;;;;6.21;100.00;92808.63;5033208;28;19936;-88
2021/01/07 01:01:30;;;;;;;3.72;0.80;;;;;;;6.22;100.00;92800.00;5033314;28;20046;-85
2021/01/07 01:03:56;;;;;;;;;;;;;;;6.23;100.00;92793.94;5033691;28;20068;-85
2021/01/07 01:06:30;;;;;;;1.45;0.40;;;;;;;6.21;100.00;92805.31;5033187;28;19921;-85
2021/01/07 01:08:56;;;;;;;1.95;0.80;;;;;;;6.01;100.00;92771.09;5033250;28;20099;-87
2021/01/07 01:11:22;;;;;;;;;;;;;;;6.22;100.00;92794.13;5033552;28;20064;-84
2021/01/07 01:13:49;;;;;;;1.63;0.82;;;;;;;6.19;100.00;92794.50;5033141;28;19921;-85
2021/01/07 01:16:16;;;;;;;0.88;0.50;;;;;;;6.22;100.00;92802.56;5032886;28;20092;-87
2021/01/07 01:18:42;;;;;;;;;;;;;;;6.27;100.00;92789.22;5033497;28;20077;-84
2021/01/07 01:21:08;;;;;;;1.30;0.68;;;;;;;6.20;100.00;92783.34;5032876;28;19967;-84
2021/01/07 01:23:34;;;;;;;;;;;;;;;6.26;100.00;92785.88;5033402;28;20049;-86
2021/01/07 01:26:00;;;;;;;;;;;;;;;6.24;100.00;92800.59;5033178;28;20383;-87
2021/01/07 01:28:27;;;;;;;2.42;1.02;;;;;;;6.29;100.00;92792.34;5032811;28;19921;-88
2021/01/07 01:30:54;;;;;;;3.47;0.90;;;;;;;6.27;100.00;92787.47;5032553;28;20052;-85
2021/01/07 01:33:20;;;;;;;7.00;1.58;;;;;;;6.20;100.00;92770.59;5032635;28;20104;-88
2021/01/07 01:35:46;;;;;;;3.28;1.77;;;;;;;6.34;100.00;92786.69;5032795;28;20057;-87
2021/01/07 01:38:13;;;;;;;6.93;2.45;;;;;;;6.34;100.00;92782.38;5032733;28;20064;-88
2021/01/07 01:40:39;;;;;;;;;;;;;;;6.37;100.00;92776.88;5033046;28;20073;-83
2021/01/07 01:43:05;;;;;;;3.67;2.13;;;;;;;6.38;100.00;92780.19;5032285;28;19924;-87
2021/01/07 01:45:31;;;;;;;;;;;;;;;6.35;100.00;92776.28;5032766;28;20053;-84
2021/01/07 01:47:59;;;;;;;3.75;1.88;;;;;;;6.31;100.00;92767.47;5032527;28;19928;-85
2021/01/07 01:50:25;;;;;;;4.75;1.83;;;;;;;6.32;100.00;92758.81;5032249;28;20053;-85
2021/01/07 01:52:51;;;;;;;;;;;;;;;6.40;100.00;92757.84;5032555;28;20452;-85
2021/01/07 01:55:17;;;;;;;1.60;0.90;;;;;;;6.36;100.00;92749.00;5032408;28;19927;-85
2021/01/07 01:57:46;;;;;;;;;;;;;;;6.35;100.00;92738.00;5032602;28;20049;-84
2021/01/07 02:00:13;;;;;;;8.57;2.72;;;;;;;6.24;100.00;92739.38;5032552;28;19928;-85
2021/01/07 02:02:39;;;;;;;12.23;4.97;;;;;;;6.30;100.00;92737.03;5032128;28;21016;-86
2021/01/07 02:05:07;;;;;;;;;;;;;;;6.38;100.00;92734.28;5032523;28;20115;-85
2021/01/07 02:07:34;;;;;;;4.43;2.33;;;;;;;6.17;100.00;92705.44;5032145;28;20365;-84
2021/01/07 02:10:02;;;;;;;1.92;1.27;;;;;;;6.31;100.00;92724.09;5032184;28;20046;-86
2021/01/07 02:12:28;;;;;;;10.15;5.25;;;;;;;6.28;100.00;92699.75;5031678;28;20505;-86
2021/01/07 02:14:55;;;;;;;4.22;1.83;;;;;;;6.26;100.00;92683.84;5031846;28;20050;-84
2021/01/07 02:17:21;;;;;;;;;;;;;;;6.33;100.00;92691.50;5032403;28;20477;-83
2021/01/07 02:19:47;;;;;;;2.60;0.80;;;;;;;6.24;100.00;92693.47;5031841;28;20427;-84
2021/01/07 02:22:14;;;;;;;;;;;;;;;6.26;100.00;92693.28;5032303;28;20054;-84
2021/01/07 02:24:40;;;;;;;2.47;1.20;;;;;;;6.22;100.00;92707.41;5031809;28;19925;-84
2021/01/07 02:27:09;;;;;;;5.93;2.25;;;;;;;6.23;100.00;92721.72;5031465;28;20034;-84
2021/01/07 02:29:35;;;;;;;6.10;2.08;;;;;;;6.20;100.00;92717.03;5031766;28;20115;-84
2021/01/07 02:32:02;;;;;;;2.42;1.25;;;;;;;6.27;100.00;92722.91;5031684;28;20053;-83
2021/01/07 02:34:28;;;;;;;4.15;1.77;;;;;;;6.25;100.00;92727.44;5031677;28;20054;-84
2021/01/07 02:36:55;;;;;;;;;;;;;;;6.23;100.00;92724.28;5031971;28;20082;-85
2021/01/07 02:39:22;;;;;;;4.07;1.52;;;;;;;6.19;100.00;92720.53;5031434;28;19921;-83
2021/01/07 02:41:52;;;;;;;5.05;2.10;;;;;;;6.24;100.00;92726.63;5031585;28;20072;-83
2021/01/07 02:44:18;;;;;;;6.05;1.80;;;;;;;6.20;100.00;92732.31;5031414;28;20049;-84
2021/01/07 02:46:44;;;;;;;;;;;;;;;6.21;100.00;92734.66;5031869;28;20049;-83
2021/01/07 02:49:10;;;;;;;5.63;1.58;;;;;;;5.95;100.00;92686.94;5031401;28;20293;-85
2021/01/07 02:51:36;;;;;;;;;;;;;;;6.21;100.00;92719.34;5031734;28;20049;-85
2021/01/07 02:54:03;;;;;;;2.10;0.80;;;;;;;6.14;100.00;92711.72;5030585;28;19931;-84
2021/01/07 02:56:31;;;;;;;1.35;0.95;;;;;;;6.20;100.00;92715.25;5031203;28;20045;-85
2021/01/07 02:58:57;;;;;;;2.40;0.82;;;;;;;6.14;100.00;92711.72;5031404;28;20045;-83
2021/01/07 03:01:23;;;;;;;;;;;;;;;6.27;100.00;92717.81;5031670;28;20049;-84
2021/01/07 03:03:49;;;;;;;1.50;0.93;;;;;;;6.24;100.00;92726.63;5031166;28;19925;-84
2021/01/07 03:06:16;;;;;;;2.03;0.73;;;;;;;6.24;100.00;92733.50;5031156;28;20104;-84
2021/01/07 03:08:41;;;;;;;;;;;;;;;6.25;100.00;92737.63;5031491;28;20069;-82
2021/01/07 03:11:08;;;;;;;;;;;;;;;6.22;100.00;92720.16;5031447;28;20396;-82
2021/01/07 03:13:35;;;;;;;5.07;1.52;;;;;;;6.18;100.00;92722.31;5031138;28;19928;-81
2021/01/07 03:16:01;;;;;;;1.17;0.75;;;;;;;6.19;100.00;92717.97;5030978;28;20402;-83
2021/01/07 03:18:27;;;;;;;3.75;1.60;;;;;;;6.24;100.00;92721.53;5030992;28;20444;-84
2021/01/07 03:20:54;;;;;;;5.05;2.63;;;;;;;6.24;100.00;92711.31;5030860;28;20049;-82
2021/01/07 03:23:20;;;;;;;4.43;1.10;;;;;;;6.23;100.00;92722.53;5030772;28;20049;-84
2021/01/07 03:25:46;;;;;;;4.90;3.42;;;;;;;6.19;100.00;92717.97;5030792;28;20057;-83
2021/01/07 03:28:12;;;;;;;3.08;1.77;;;;;;;6.23;100.00;92726.81;5031118;28;20048;-83
2021/01/07 03:30:40;;;;;;;3.85;1.80;;;;;;;6.24;100.00;92718.19;5030784;28;20049;-82
2021/01/07 03:33:06;;;;;;;5.53;1.65;;;;;;;6.22;100.00;92709.94;5030733;28;20045;-84
2021/01/07 03:35:33;;;;;;;;;;;;;;;6.23;100.00;92717.41;5031138;28;20061;-84
2021/01/07 03:37:59;;;;;;;3.15;1.42;;;;;;;6.11;100.00;92717.19;5030957;28;19925;-82
2021/01/07 03:40:26;;;;;;;1.65;0.80;;;;;;;6.12;100.00;92718.00;5030602;28;20104;-84
2021/01/07 03:42:52;;;;;;;2.15;1.10;;;;;;;6.10;100.00;92705.44;5030566;28;20053;-84
2021/01/07 03:45:18;;;;;;;;;;;;;;;6.13;100.00;92717.00;5031081;28;20429;-84
2021/01/07 03:47:45;;;;;;;1.20;0.80;;;;;;;6.07;100.00;92712.69;5030719;28;20430;-84
2021/01/07 03:50:12;;;;;;;1.00;0.60;;;;;;;6.09;100.00;92714.06;5030442;28;20053;-83
2021/01/07 03:52:39;;;;;;;1.98;0.70;;;;;;;6.09;100.00;92708.97;5030385;28;20053;-84
2021/01/07 03:55:06;;;;;;;4.00;0.82;;;;;;;6.06;100.00;92708.56;5030739;28;20050;-83
2021/01/07 03:57:33;;;;;;;1.00;0.60;;;;;;;6.11;100.00;92719.75;5030669;28;20053;-85
2021/01/07 03:59:59;;;;;;;2.60;0.85;;;;;;;6.12;100.00;92720.53;5030526;28;20056;-81
2021/01/07 04:02:25;;;;;;;;;;;;;;;6.12;100.00;92718.00;5031009;28;20050;-84
2021/01/07 04:04:52;;;;;;;4.00;1.48;;;;;;;6.10;100.00;92702.88;5030321;28;19921;-85
2021/01/07 04:07:18;;;;;;;1.45;0.63;;;;;;;5.98;100.00;92689.09;5033258;28;20543;-84
2021/01/07 04:09:44;;;;;;;;;;;;;;;6.13;100.00;92707.59;5034721;28;20046;-83
2021/01/07 04:12:10;;;;;;;3.22;0.40;;;;;;;6.11;100.00;92716.44;5034414;28;19956;-82
2021/01/07 04:14:37;;;;;;;4.38;0.98;;;;;;;6.13;100.00;92715.25;5034077;28;20057;-85
2021/01/07 04:17:03;;;;;;;;;;;;;;;6.14;100.00;92716.03;5034640;28;20057;-84
2021/01/07 04:19:29;;;;;;;1.27;0.70;;;;;;;6.10;100.00;92715.63;5034042;28;19924;-83
2021/01/07 04:21:56;;;;;;;0.90;0.40;;;;;;;5.88;100.00;92690.25;5034203;28;20497;-84
2021/01/07 04:24:23;;;;;;;2.38;1.02;;;;;;;6.20;100.00;92722.13;5034190;28;20060;-83
2021/01/07 04:26:49;;;;;;;2.83;1.20;;;;;;;6.13;100.00;92719.56;5034008;28;20053;-83
2021/01/07 04:29:15;;;;;;;;;;;;;;;6.19;100.00;92726.44;5034458;28;20065;-83
2021/01/07 04:31:41;;;;;;;1.23;0.70;;;;;;;6.18;100.00;92724.88;5033872;28;19925;-83
2021/01/07 04:34:07;;;;;;;;;;;;;;;6.17;100.00;92715.66;5033963;28;20548;-84
2021/01/07 04:36:34;;;;;;;1.80;1.05;;;;;;;6.17;100.00;92715.66;5034065;28;19921;-82
2021/01/07 04:39:01;;;;;;;;;;;;;;;6.22;100.00;92708.19;5034556;28;20053;-82
2021/01/07 04:41:27;;;;;;;1.73;1.02;;;;;;;6.13;100.00;92706.81;5033800;28;19921;-83
2021/01/07 04:43:56;;;;;;;3.08;1.45;;;;;;;6.04;100.00;92690.91;5033649;28;20049;-82
2021/01/07 04:46:23;;;;;;;1.20;0.73;;;;;;;6.14;100.00;92711.72;5033431;28;20049;-84
2021/01/07 04:48:49;;;;;;;4.53;1.20;;;;;;;6.19;100.00;92716.22;5033438;28;20045;-83
2021/01/07 04:51:15;;;;;;;;;;;;;;;6.24;100.00;92718.19;5034025;28;20485;-83
2021/01/07 04:53:42;;;;;;;1.17;0.98;;;;;;;6.12;100.00;92705.25;5033457;28;19928;-84
2021/01/07 04:56:10;;;;;;;4.55;1.15;;;;;;;6.25;100.00;92712.13;5033382;28;20050;-82
2021/01/07 04:58:36;;;;;;;1.35;0.80;;;;;;;6.25;100.00;92714.69;5033359;28;20053;-83
2021/01/07 05:01:02;;;;;;;;;;;;;;;6.27;100.00;92722.91;5033725;28;20057;-84
2021/01/07 05:03:31;;;;;;;0.88;0.80;;;;;;;6.23;100.00;92716.63;5033185;28;19925;-82
2021/01/07 05:05:57;;;;;;;2.03;1.55;;;;;;;6.29;100.00;92720.94;5033181;28;20049;-83
2021/01/07 05:08:23;;;;;;;;;;;;;;;6.28;100.00;92717.63;5033662;28;20068;-84
2021/01/07 05:10:51;;;;;;;1.20;0.80;;;;;;;6.22;100.00;92725.25;5033313;28;19921;-82
2021/01/07 05:13:19;;;;;;;1.80;0.75;;;;;;;6.30;100.00;92725.09;5033084;28;20065;-84
2021/01/07 05:15:45;;;;;;;2.67;1.00;;;;;;;6.31;100.00;92731.75;5032823;28;20045;-85
2021/01/07 05:18:11;;;;;;;;;;;;;;;6.38;100.00;92744.50;5033470;28;20054;-83
2021/01/07 05:20:38;;;;;;;1.80;0.90;;;;;;;6.27;100.00;92744.13;5033007;28;19925;-83
2021/01/07 05:23:05;;;;;;;1.98;0.80;;;;;;;6.32;100.00;92745.28;5033055;28;20056;-80
2021/01/07 05:25:31;;;;;;;2.00;1.10;;;;;;;6.36;100.00;92757.47;5032909;28;20057;-82
2021/01/07 05:27:59;;;;;;;3.15;1.05;;;;;;;6.39;100.00;92746.84;5032862;28;20045;-82
2021/01/07 05:30:28;;;;;;;3.38;1.63;;;;;;;6.41;100.00;92742.34;5032783;28;20151;-82
2021/01/07 05:33:01;;;;;;;3.55;1.38;;;;;;;6.43;100.00;92739.59;5032711;28;20056;-83
2021/01/07 05:35:27;;;;;;;3.15;2.13;;;;;;;6.43;100.00;92738.81;5032830;28;20061;-82
2021/01/07 05:37:54;;;;;;;5.70;2.67;;;;;;;6.39;100.00;92734.09;5032865;28;20049;-83
2021/01/07 05:40:23;;;;;;;3.95;1.67;;;;;;;6.48;100.00;92751.78;5032692;28;20057;-82
2021/01/07 05:42:49;;;;;;;4.18;1.65;;;;;;;6.53;100.00;92749.44;5032448;28;20049;-84
2021/01/07 05:45:17;;;;;;;6.28;2.45;;;;;;;6.51;100.00;92749.63;5032012;28;20059;-84
2021/01/07 05:47:45;;;;;;;2.50;1.23;;;;;;;6.50;100.00;92758.25;5032210;28;20057;-83
2021/01/07 05:50:13;;;;;;;4.43;1.25;;;;;;;6.46;100.00;92736.66;5051749;28;20512;-82
2021/01/07 05:52:43;;;;;;;2.63;1.25;;;;;;;6.35;100.00;92706.63;5035420;28;20517;-81
2021/01/07 05:55:12;;;;;;;1.80;1.20;;;;;;;6.53;100.00;92729.00;5032194;28;20076;-82
2021/01/07 05:57:39;;;;;;;4.57;1.23;;;;;;;6.51;100.00;92736.84;5030805;28;20047;-82
2021/01/07 06:00:07;;;;;;;2.08;0.85;;;;;;;6.47;100.00;92743.31;5031359;28;20045;-84
2021/01/07 06:02:36;;;;;;;4.38;1.48;;;;;;;6.52;100.00;92738.44;5031846;28;20501;-83
2021/01/07 06:05:06;;;;;;;2.28;0.82;;;;;;;6.54;100.00;92749.22;5032323;28;20053;-83
2021/01/07 06:07:32;;;;;;;6.47;1.60;;;;;;;6.55;100.00;92744.91;5032018;28;20080;-83
2021/01/07 06:10:00;;;;;;;5.22;3.28;;;;;;;6.49;100.00;92731.16;5031135;28;20041;-82
2021/01/07 06:12:27;;;;;;;2.53;1.60;;;;;;;6.59;100.00;92738.44;5032157;28;20505;-84
2021/01/07 06:14:54;;;;;;;4.47;1.75;;;;;;;6.60;100.00;92741.75;5012186;28;20502;-84
2021/01/07 06:17:21;;;;;;;7.55;1.92;;;;;;;6.49;100.00;92727.84;5012318;28;20050;-85
2021/01/07 06:19:53;;;;;;;2.50;1.40;;;;;;;6.64;100.00;92730.19;5011949;28;20560;-85
2021/01/07 06:22:22;;;;;;;2.92;1.45;;;;;;;6.58;100.00;92725.88;5011896;28;20056;-85
2021/01/07 06:24:52;;;;;;;2.17;1.25;;;;;;;6.65;100.00;92737.66;5012267;28;20049;-84
2021/01/07 06:27:22;;;;;;;2.08;1.40;;;;;;;6.65;100.00;92740.19;5011858;28;20099;-84
2021/01/07 06:29:49;;;;;;;3.03;1.48;;;;;;;6.64;100.00;92735.28;5020260;28;20049;-84
2021/01/07 06:32:17;;;;;;;;;;;;;;;6.59;100.00;92743.53;5031948;28;20501;-84
2021/01/07 06:34:45;;;;;;;2.75;2.25;;;;;;;6.53;100.00;92746.88;5031804;28;19921;-84
2021/01/07 06:37:12;;;;;;;6.22;1.83;;;;;;;6.55;100.00;92750.81;5031639;28;20448;-85
2021/01/07 06:39:43;;;;;;;3.78;2.08;;;;;;;6.25;100.00;92718.00;5031505;28;20049;-85
2021/01/07 06:42:18;;;;;;;2.75;1.42;;;;;;;6.49;100.00;92759.22;5031409;28;20045;-84
2021/01/07 06:44:45;;;;;;;6.15;1.88;;;;;;;6.51;100.00;92764.94;5031198;28;20048;-84
2021/01/07 06:47:21;;;;;;;3.22;1.65;;;;;;;6.53;100.00;92768.06;5031259;28;20098;-86
2021/01/07 06:49:49;;;;;;;2.35;1.40;;;;;;;6.44;100.00;92765.91;5031419;28;20057;-84
2021/01/07 06:52:16;;;;;;;5.10;1.40;;;;;;;6.59;100.00;92758.84;5031405;28;20050;-85
2021/01/07 06:54:45;;;;;;;4.10;1.88;;;;;;;6.62;100.00;92753.34;5031309;28;20103;-85
2021/01/07 06:57:13;;;;;;;7.20;2.42;;;;;;;6.52;100.00;92752.94;5030713;28;20539;-85
2021/01/07 06:59:56;;;;;;;4.88;2.53;;;;;;;6.51;100.00;92769.22;5030924;28;20406;-85
2021/01/07 07:02:22;;;;;;;5.72;1.90;;;;;;;6.49;100.00;92766.09;5031306;28;20049;-85
2021/01/07 07:04:58;;;;;;;5.78;2.10;;;;;;;6.36;100.00;92762.56;5031139;28;20053;-85
2021/01/07 07:08:04;;;;;;;4.55;1.80;;;;;;;6.62;100.00;92796.72;5031115;28;20041;-86
2021/01/07 07:11:07;;;;;;;8.07;2.65;;;;;;;6.65;100.00;92793.00;5030845;28;20057;-86
2021/01/07 07:13:40;;;;;;;2.63;1.35;;;;;;;6.67;100.00;92806.38;5030965;28;20057;-84
2021/01/07 07:16:10;;;;;;;4.22;2.42;;;;;;;6.73;100.00;92807.34;5030909;28;20055;-83
2021/01/07 07:18:38;;;;;;;3.95;2.45;;;;;;;6.74;100.00;92806.34;5030705;28;20050;-86
2021/01/07 07:21:19;;;;;;;3.25;1.92;;;;;;;6.79;100.00;92809.91;5030985;28;20064;-85
2021/01/07 07:23:46;;;;;;;2.42;1.50;;;;;;;6.72;100.00;92783.59;5030917;28;20080;-84
2021/01/07 07:26:16;;;;;;;35.35;10.48;;;;;;;6.80;100.00;92797.91;5030661;28;20056;-85
2021/01/07 07:28:46;;;;;;;15.05;6.57;;;;;;;6.80;100.00;92795.34;5030696;28;20045;-83
2021/01/07 07:31:13;;;;;;;9.73;2.80;;;;;;;6.86;100.00;92806.56;5030528;28;20049;-84
2021/01/07 07:33:40;;;;;;;3.30;1.83;;;;;;;6.86;100.00;92809.91;5030528;28;20410;-85
2021/01/07 07:36:08;;;;;;;4.45;1.55;;;;;;;6.93;100.00;92812.44;5030787;28;20055;-84
2021/01/07 07:38:36;;;;;;;3.38;1.60;;;;;;;6.91;100.00;92814.41;5030772;28;20049;-84
2021/01/07 07:41:05;;;;;;;6.90;2.65;;;;;;;6.94;100.00;92816.56;5032993;28;20493;-84
2021/01/07 07:43:33;;;;;;;14.50;5.57;;;;;;;6.96;100.00;92796.75;5034685;28;20053;-84
2021/01/07 07:46:00;;;;;;;21.40;7.38;;;;;;;6.89;100.00;92794.19;5034830;28;20119;-84
2021/01/07 07:48:28;;;;;;;32.35;10.77;;;;;;;7.01;100.00;92812.25;5034666;28;20486;-83
2021/01/07 07:51:05;;;;;;;55.15;19.15;;;;;;;7.06;100.00;92814.22;5034621;28;20057;-83
2021/01/07 07:53:31;;;;;;;58.55;20.17;;;;;;;7.08;100.00;92822.44;5034684;28;20412;-84
2021/01/07 07:55:57;;;;;;;;;;;;;;;7.12;100.00;92820.31;5034548;28;20049;-86
2021/01/07 07:58:23;;;;;;;97.32;36.03;;;;;;;7.11;100.00;92816.16;5034268;28;19976;-82
2021/01/07 08:00:51;;;;;;;;;;;;;;;7.16;100.00;92829.13;5035026;28;20042;-84
2021/01/07 08:03:22;;;;;;;78.93;27.13;;;;;;;7.21;100.00;92831.88;5034745;28;19955;-83
2021/01/07 08:05:49;;;;;;;70.93;28.35;;;;;;;7.25;100.00;92834.81;5034316;28;20050;-84
2021/01/07 08:08:21;;;;;;;;;;;;;;;7.33;99.77;92832.06;5034881;28;20056;-83
2021/01/07 08:10:47;;;;;;;78.03;29.40;;;;;;;7.33;99.17;92834.63;5034227;28;19932;-84
2021/01/07 08:13:13;;;;;;;42.10;21.88;;;;;;;7.37;99.48;92845.25;5034489;28;20045;-83
2021/01/07 08:15:47;;;;;;;33.03;15.73;;;;;;;7.44;99.54;92849.34;5034234;28;20107;-85
2021/01/07 08:18:15;;;;;;;53.78;22.95;;;;;;;7.52;99.14;92852.69;5034267;28;20046;-85
2021/01/07 08:20:42;;;;;;;91.80;39.83;;;;;;;7.52;99.11;92861.16;5034066;28;20045;-84
2021/01/07 08:23:08;;;;;;;;;;;;;;;7.61;98.87;92867.63;5034532;28;20055;-83
2021/01/07 08:25:34;;;;;;;35.65;14.63;;;;;;;7.48;98.92;92876.09;5033794;28;20270;-85
2021/01/07 08:28:11;;;;;;;15.75;5.93;;;;;;;7.49;99.24;92892.19;5033966;28;20045;-83
2021/01/07 08:30:40;;;;;;;4.53;3.28;;;;;;;7.43;96.45;92921.09;5034082;28;20547;-84
2021/01/07 08:33:08;;;;;;;0.95;0.50;;;;;;;6.69;92.97;92937.13;5033830;28;20057;-85
2021/01/07 08:35:36;;;;;;;0.55;0.30;;;;;;;6.33;94.07;92956.00;5033898;28;20057;-83
2021/01/07 08:38:02;;;;;;;5.38;1.83;;;;;;;6.24;94.70;92958.72;5033920;28;20133;-82
2021/01/07 08:40:29;;;;;;;;;;;;;;;5.94;93.33;92960.69;5034322;28;20057;-83
2021/01/07 08:42:55;;;;;;;0.40;0.20;;;;;;;5.55;92.92;92976.31;5033601;28;19921;-84
2021/01/07 08:45:28;;;;;;;0.40;0.30;;;;;;;5.27;94.23;92984.69;5033541;28;20540;-83
2021/01/07 08:48:04;;;;;;;0.40;0.30;;;;;;;4.87;96.11;92984.31;5033593;28;20136;-82
2021/01/07 08:50:32;;;;;;;4.45;0.68;;;;;;;4.64;95.70;92980.16;5033542;28;20045;-83
2021/01/07 08:52:59;;;;;;;1.63;1.40;;;;;;;4.54;98.05;92983.00;5033038;28;20469;-82
2021/01/07 08:55:48;;;;;;;0.77;0.38;;;;;;;4.36;97.24;92993.53;5033591;28;20437;-83
2021/01/07 08:58:24;;;;;;;1.95;0.90;;;;;;;4.05;99.02;92990.19;5033508;28;20132;-84
2021/01/07 09:00:52;;;;;;;0.43;0.40;;;;;;;3.86;99.13;92988.97;5033312;28;20049;-84
2021/01/07 09:03:18;;;;;;;1.92;0.50;;;;;;;3.89;99.42;92998.75;5033488;28;20056;-83
2021/01/07 09:05:45;;;;;;;0.75;0.30;;;;;;;3.71;99.55;92964.31;5033375;28;20049;-86
2021/01/07 09:08:13;;;;;;;;;;;;;;;3.93;100.00;93005.09;5033880;28;21005;-84
2021/01/07 09:10:39;;;;;;;2.45;1.13;;;;;;;3.85;100.00;93005.19;5033405;28;20007;-83
2021/01/07 09:13:16;;;;;;;0.68;0.68;;;;;;;3.81;100.00;92994.56;5033138;28;20041;-84
2021/01/07 09:15:43;;;;;;;2.03;0.40;;;;;;;3.69;100.00;92990.84;5033463;28;20105;-83
2021/01/07 09:18:09;;;;;;;;;;;;;;;3.78;100.00;92978.84;5033656;28;20049;-85
2021/01/07 09:20:36;;;;;;;0.70;0.50;;;;;;;3.57;100.00;92978.56;5033107;28;19925;-85
2021/01/07 09:23:04;;;;;;;0.45;0.30;;;;;;;3.47;100.00;92986.44;5033117;28;20049;-85
2021/01/07 09:25:32;;;;;;;0.68;0.55;;;;;;;3.43;100.00;92971.72;5032993;28;20049;-85
2021/01/07 09:27:58;;;;;;;0.90;0.60;;;;;;;3.53;100.00;92976.56;5032828;28;20045;-84
2021/01/07 09:30:26;;;;;;;1.48;0.65;;;;;;;3.63;100.00;92966.94;5033067;28;20107;-84
2021/01/07 09:32:53;;;;;;;0.50;0.30;;;;;;;3.83;100.00;92986.75;5032776;28;21048;-84
2021/01/07 09:35:20;;;;;;;2.15;0.85;;;;;;;3.72;100.00;92985.44;5032526;28;20050;-84
2021/01/07 09:37:46;;;;;;;1.27;0.73;;;;;;;3.70;100.00;92989.91;5032775;28;20045;-84
2021/01/07 09:40:13;;;;;;;2.65;1.05;;;;;;;3.73;100.00;92994.63;5032689;28;20501;-84
2021/01/07 09:42:40;;;;;;;2.72;0.95;;;;;;;3.73;100.00;92999.72;5032701;28;20049;-85
2021/01/07 09:45:08;;;;;;;1.63;1.00;;;;;;;3.47;100.00;92985.63;5032761;28;20445;-83
2021/01/07 09:47:36;;;;;;;0.63;0.40;;;;;;;3.50;100.00;92969.25;5032490;28;20048;-85
2021/01/07 09:50:03;;;;;;;0.77;0.40;;;;;;;3.44;100.00;92979.16;5032500;28;20057;-84
2021/01/07 09:52:29;;;;;;;1.45;0.55;;;;;;;3.61;100.00;92989.97;5032340;28;20133;-84
2021/01/07 09:54:55;;;;;;;;;;;;;;;3.76;100.00;92983.34;5032547;28;20445;-84
2021/01/07 09:57:21;;;;;;;2.33;1.20;;;;;;;3.81;100.00;92976.78;5032517;28;19921;-85
2021/01/07 09:59:48;;;;;;;1.15;0.77;;;;;;;4.01;99.63;92977.06;5032221;28;20490;-84
2021/01/07 10:02:15;;;;;;;2.88;1.08;;;;;;;4.16;98.96;92978.03;5032321;28;20417;-85
2021/01/07 10:04:41;;;;;;;2.45;1.20;;;;;;;3.96;97.41;92951.38;5031172;28;20045;-84
2021/01/07 10:07:08;;;;;;;1.00;0.77;;;;;;;4.05;97.48;92985.13;5032073;28;20145;-84
2021/01/07 10:09:35;;;;;;;2.70;1.58;;;;;;;4.04;98.63;92981.00;5031835;28;20128;-84
2021/01/07 10:12:01;;;;;;;3.28;0.85;;;;;;;4.14;97.15;92971.38;5032239;28;20045;-85
2021/01/07 10:14:28;;;;;;;;;;;;;;;4.29;96.62;92980.72;5032296;28;20045;-84
2021/01/07 10:16:56;;;;;;;1.48;0.82;;;;;;;4.30;97.07;92979.75;5032119;28;19925;-84
2021/01/07 10:19:24;;;;;;;1.67;0.70;;;;;;;4.35;95.99;92967.31;5031968;28;20045;-84
2021/01/07 10:21:58;;;;;;;1.38;0.68;;;;;;;4.48;96.98;92970.97;5031744;28;20394;-84
2021/01/07 10:24:25;;;;;;;1.67;0.70;;;;;;;4.41;96.46;92937.84;5031929;28;20132;-84
2021/01/07 10:26:55;;;;;;;1.50;0.80;;;;;;;4.43;95.53;92920.63;5031801;28;20072;-85
2021/01/07 10:29:21;;;;;;;5.18;2.38;;;;;;;4.76;94.78;92957.56;5031593;28;20096;-84
2021/01/07 10:31:48;;;;;;;4.20;1.90;;;;;;;4.74;95.33;92954.44;5031704;28;20041;-85
2021/01/07 10:34:15;;;;;;;4.55;0.95;;;;;;;4.74;94.60;92956.97;5031620;28;20057;-84
2021/01/07 10:36:42;;;;;;;1.38;0.90;;;;;;;4.90;94.06;92971.22;5031432;28;20041;-85
2021/01/07 10:39:10;;;;;;;2.47;0.90;;;;;;;4.94;93.62;92967.34;5031733;28;20056;-85
2021/01/07 10:41:43;;;;;;;2.25;0.75;;;;;;;4.94;94.47;92965.59;5031574;28;20049;-85
2021/01/07 10:44:09;;;;;;;0.77;0.47;;;;;;;4.94;90.78;92968.16;5031380;28;20508;-85
2021/01/07 10:46:36;;;;;;;;;;;;;;;4.85;92.85;92969.22;5031691;28;20053;-85
2021/01/07 10:49:03;;;;;;;0.70;0.20;;;;;;;4.70;93.94;92945.56;5031230;28;19943;-85
2021/01/07 10:51:40;;;;;;;0.98;0.57;;;;;;;4.81;93.57;92958.63;5031473;28;20060;-86
2021/01/07 10:54:16;;;;;;;1.33;0.60;;;;;;;4.76;92.38;92957.56;5031439;28;20096;-85
2021/01/07 10:57:11;;;;;;;1.77;0.88;;;;;;;4.65;95.73;92959.63;5031062;28;20050;-85
2021/01/07 10:59:47;;;;;;;0.93;0.40;;;;;;;4.53;94.82;92936.41;5030152;28;20045;-84
2021/01/07 11:02:45;;;;;;;3.30;0.75;;;;;;;4.70;95.81;92956.53;5030467;28;20444;-84
2021/01/07 11:05:17;;;;;;;1.65;0.70;;;;;;;4.73;96.91;92945.22;5023000;28;20056;-84
2021/01/07 11:07:58;;;;;;;3.40;0.90;;;;;;;4.58;94.53;92948.56;5030436;28;20041;-85
2021/01/07 11:10:24;;;;;;;0.85;0.52;;;;;;;4.67;96.25;92949.25;5029635;28;20045;-85
2021/01/07 11:12:56;;;;;;;2.03;1.00;;;;;;;4.81;96.91;92948.44;5030481;28;20123;-84
2021/01/07 11:15:25;;;;;;;0.50;0.30;;;;;;;4.74;92.08;92936.63;5027982;28;20053;-85
2021/01/07 11:17:56;;;;;;;2.05;1.15;;;;;;;4.67;94.96;92941.63;5030282;28;20091;-85
2021/01/07 11:20:27;;;;;;;2.72;0.88;;;;;;;4.63;96.41;92925.16;5027984;28;20511;-85
2021/01/07 11:22:55;;;;;;;1.92;1.10;;;;;;;4.79;95.10;92936.88;5030824;28;20096;-85
2021/01/07 11:25:23;;;;;;;2.13;1.00;;;;;;;4.88;95.28;92947.72;5030717;28;20049;-84
2021/01/07 11:27:50;;;;;;;1.52;0.80;;;;;;;4.90;94.73;92944.03;5030803;28;20456;-85
2021/01/07 11:30:18;;;;;;;1.80;1.05;;;;;;;4.94;94.10;92934.25;5030813;28;20049;-84
2021/01/07 11:32:45;;;;;;;2.22;1.30;;;;;;;4.99;94.00;92942.16;5030511;28;20052;-84
2021/01/07 11:35:12;;;;;;;2.33;1.13;;;;;;;4.79;90.94;92926.69;5028368;28;20428;-85
2021/01/07 11:37:51;;;;;;;61.42;19.60;;;;;;;4.71;92.94;92926.81;5032243;28;20561;-84
2021/01/07 11:40:24;;;;;;;6.80;3.50;;;;;;;4.84;92.95;92918.50;5030747;28;20059;-85
2021/01/07 11:43:31;;;;;;;5.13;3.10;;;;;;;4.90;93.60;92936.38;5046872;28;20132;-84
2021/01/07 11:46:00;;;;;;;6.43;2.38;;;;;;;4.94;95.27;92942.69;5050521;28;20851;-84
2021/01/07 11:48:30;;;;;;;8.45;4.10;;;;;;;4.98;94.99;92930.38;5050533;28;20497;-84
2021/01/07 11:51:03;;;;;;;7.35;3.63;;;;;;;5.02;93.22;92930.81;5050960;28;20045;-84